Etusivu
METAR-TAF:

METAR-TAF

Lentoasemat :

Cranfield, Englanti

Leveyspiiri: 52-04N, Pituuspiiri: 000-37W, korkeus merenpinnasta: 111 m

Tämänhetkinen sää

Tämä raportti tehtiin 3 tuntia ja 55 minuuttia sitten, kello 17.50 UTC
Tuuli 4 kn lännestä/luoteesta
Lämpötila 2°C
Kosteus 93%
Ilmanpaine 1016 hPa
Näkyvyys 10 km tai enemmän
ei pilviä alle 1500 m:ssä eikä cumulonimbus-pilviä

METAR: EGTC 181750Z 30004KT CAVOK 02/01 Q1016

Aika: 21:45 (21:45 UTC)

Sääennuste

Tämä raportti tehtiin 7 tuntia ja 47 minuuttia sitten, kello 13.58 UTC
Ennuste voimassa 18. päivästä klo 15 UTC - 18. päivään klo 18 UTC
Tuuli 9 kn pohjoisesta
Näkyvyys 10 km tai enemmän
Muutamia pilviä 3500 ft:n korkeudessa

TAF: EGTC 181358Z 1815/1818 35009KT 9999 FEW035

Säähavainnot ja -ennusteet yli 4000 lentoasemalta (METAR- ja TAF-raportit).

Käytössä olevat sääasemat on merkitty karttaan keltaisilla ja punaisilla pisteillä.

Aseta hiiri pisteen päälle nähdäksesi sääaseman nimen.

Klikkaa sitten nähdäksesi säähavainnot ja -ennusteet.

Kartan vaihtaminen: klikkaa mustalla rastilla varustettuja vihreitä pisteitä, niin voit zoomata sisään; viivalla varustettua vihreää pistettä, niin voit zoomata ulos tai vihreitä nuolia, niin pääset viereisille kartoille.


METAR-TAF: